Time;durP1;ratioP1;P1;durP2;ratioP2;P2;SDS_P1;SDS_P2;PMS_P1;PMS_P2;Temp;Humidity;BMP_temperature;BMP_pressure;BME280_temperature;BME280_humidity;BME280_pressure;Samples;Min_cycle;Max_cycle;Signal;HPM_P1;HPM_P2
2022/07/24 00:01:47;;;;;;;68.25;51.92;;;21.00;99.90;;;;;;5074954;28;20032;-66
2022/07/24 00:04:13;;;;;;;72.38;52.53;;;21.00;99.90;;;;;;5075052;28;20424;-66
2022/07/24 00:06:39;;;;;;;65.18;50.60;;;21.00;99.90;;;;;;5074130;28;20036;-66
2022/07/24 00:09:05;;;;;;;67.22;49.70;;;21.30;99.90;;;;;;5074830;28;20031;-66
2022/07/24 00:11:32;;;;;;;67.47;47.40;;;21.20;99.90;;;;;;5075310;28;20054;-66
2022/07/24 00:13:57;;;;;;;67.30;48.38;;;21.20;99.90;;;;;;5074660;28;20111;-67
2022/07/24 00:16:23;;;;;;;60.13;45.88;;;20.60;99.90;;;;;;5074901;28;20107;-67
2022/07/24 00:18:49;;;;;;;59.08;46.08;;;20.60;99.90;;;;;;5073732;28;20422;-66
2022/07/24 00:21:15;;;;;;;60.22;42.40;;;20.60;99.90;;;;;;5075073;28;20025;-66
2022/07/24 00:23:42;;;;;;;65.40;45.00;;;20.50;99.90;;;;;;5074633;28;20028;-66
2022/07/24 00:26:09;;;;;;;62.97;45.17;;;20.50;99.90;;;;;;5074670;28;20027;-65
2022/07/24 00:28:35;;;;;;;60.60;44.40;;;20.30;99.90;;;;;;5074637;28;20040;-65
2022/07/24 00:31:01;;;;;;;55.78;42.63;;;20.70;99.90;;;;;;5074216;28;20043;-66
2022/07/24 00:33:27;;;;;;;64.20;43.65;;;20.80;99.90;;;;;;5074805;28;20040;-66
2022/07/24 00:35:53;;;;;;;54.20;41.10;;;21.00;99.90;;;;;;5074009;28;20036;-66
2022/07/24 00:38:18;;;;;;;59.55;43.60;;;20.70;99.90;;;;;;5074708;28;20035;-66
2022/07/24 00:40:44;;;;;;;56.85;43.25;;;20.10;99.90;;;;;;5073327;28;20020;-66
2022/07/24 00:43:10;;;;;;;61.42;41.90;;;20.30;99.90;;;;;;5074333;28;20032;-68
2022/07/24 00:45:36;;;;;;;56.40;42.13;;;20.30;99.90;;;;;;5074127;28;20056;-67
2022/07/24 00:48:02;;;;;;;52.42;40.30;;;20.30;99.90;;;;;;5074097;28;20028;-66
2022/07/24 00:50:28;;;;;;;53.15;40.22;;;20.30;99.90;;;;;;5074135;28;20020;-66
2022/07/24 00:52:55;;;;;;;57.45;43.30;;;20.50;99.90;;;;;;5074284;28;20043;-66
2022/07/24 00:55:22;;;;;;;51.50;39.95;;;20.60;99.90;;;;;;5073869;28;20036;-66
2022/07/24 00:57:49;;;;;;;54.97;38.25;;;20.50;99.90;;;;;;5074276;28;20120;-66
2022/07/24 01:00:17;;;;;;;51.28;37.65;;;20.40;99.90;;;;;;5073709;28;20553;-66
2022/07/24 01:02:42;;;;;;;52.95;38.72;;;20.40;99.90;;;;;;5074234;28;20485;-66
2022/07/24 01:05:09;;;;;;;48.83;36.30;;;20.60;99.90;;;;;;5073702;28;20032;-66
2022/07/24 01:07:36;;;;;;;50.72;38.20;;;20.80;99.90;;;;;;5074154;28;20024;-67
2022/07/24 01:10:04;;;;;;;57.70;37.67;;;20.90;99.90;;;;;;5073604;28;20025;-67
2022/07/24 01:12:35;;;;;;;50.92;37.20;;;20.60;99.90;;;;;;5073240;28;20021;-66
2022/07/24 01:15:01;;;;;;;52.23;38.37;;;20.70;99.90;;;;;;5088994;28;20048;-66
2022/07/24 01:17:31;;;;;;;51.45;38.58;;;20.80;99.90;;;;;;5073751;28;20738;-67
2022/07/24 01:19:57;;;;;;;52.45;38.15;;;20.90;99.90;;;;;;5073557;28;20531;-66
2022/07/24 01:22:25;;;;;;;54.13;39.80;;;20.50;99.90;;;;;;5073408;28;20025;-66
2022/07/24 01:24:51;;;;;;;54.08;37.80;;;20.50;99.90;;;;;;5071993;28;20388;-66
2022/07/24 01:27:17;;;;;;;53.83;38.75;;;20.60;99.90;;;;;;5088932;28;20480;-66
2022/07/24 01:29:43;;;;;;;48.72;36.90;;;20.50;99.90;;;;;;5073298;28;20067;-68
2022/07/24 01:32:09;;;;;;;54.60;39.90;;;20.60;99.90;;;;;;5073465;28;20141;-66
2022/07/24 01:34:35;;;;;;;51.42;38.42;;;20.50;99.90;;;;;;5073034;28;20028;-67
2022/07/24 01:37:01;;;;;;;52.63;36.38;;;20.50;99.90;;;;;;5073161;28;20067;-66
2022/07/24 01:39:27;;;;;;;49.72;36.05;;;20.60;99.90;;;;;;5072984;28;20040;-68
2022/07/24 01:41:53;;;;;;;46.20;33.70;;;20.60;99.90;;;;;;5073051;28;20037;-67
2022/07/24 01:44:18;;;;;;;50.30;34.30;;;20.60;99.90;;;;;;5072841;28;20044;-71
2022/07/24 01:46:44;;;;;;;46.80;31.88;;;20.50;99.90;;;;;;5072919;28;20029;-66
2022/07/24 01:49:11;;;;;;;44.50;32.47;;;20.50;99.90;;;;;;5072975;28;20021;-65
2022/07/24 01:51:37;;;;;;;42.58;31.05;;;20.50;99.90;;;;;;5072994;28;20415;-66
2022/07/24 01:54:04;;;;;;;43.40;31.27;;;20.20;99.90;;;;;;5073146;28;20063;-66
2022/07/24 01:56:30;;;;;;;42.63;31.52;;;20.20;99.90;;;;;;5072491;28;20048;-66
2022/07/24 01:58:56;;;;;;;45.47;30.25;;;20.20;99.90;;;;;;5073124;28;20020;-66
2022/07/24 02:01:22;;;;;;;42.38;29.92;;;20.00;99.90;;;;;;5072906;28;20385;-66
2022/07/24 02:03:48;;;;;;;39.60;29.30;;;20.10;99.90;;;;;;5072600;28;20016;-66
2022/07/24 02:06:15;;;;;;;42.25;28.63;;;19.90;99.90;;;;;;5072919;28;20483;-67
2022/07/24 02:08:40;;;;;;;41.22;29.30;;;19.90;99.90;;;;;;5072918;28;20032;-66
2022/07/24 02:11:06;;;;;;;39.63;28.15;;;19.90;99.90;;;;;;5072819;28;20020;-67
2022/07/24 02:13:32;;;;;;;47.88;28.42;;;19.90;99.90;;;;;;5072633;28;20020;-67
2022/07/24 02:15:58;;;;;;;42.65;29.25;;;19.80;99.90;;;;;;5072659;28;20086;-67
2022/07/24 02:18:24;;;;;;;43.22;29.98;;;19.70;99.90;;;;;;5072749;28;20024;-65
2022/07/24 02:20:50;;;;;;;41.42;29.85;;;19.80;99.90;;;;;;5072731;28;20020;-66
2022/07/24 02:23:17;;;;;;;42.33;29.08;;;19.80;99.90;;;;;;5072491;28;20036;-66
2022/07/24 02:25:48;;;;;;;43.55;28.10;;;19.90;99.90;;;;;;5071851;28;20874;-67
2022/07/24 02:28:14;;;;;;;34.08;26.23;;;19.80;99.90;;;;;;5072700;28;20036;-66
2022/07/24 02:30:40;;;;;;;41.17;26.05;;;19.90;99.90;;;;;;5072337;28;20028;-66
2022/07/24 02:33:06;;;;;;;32.85;25.02;;;19.70;99.90;;;;;;5072449;28;20028;-66
2022/07/24 02:35:32;;;;;;;38.65;27.30;;;19.60;99.90;;;;;;5072924;28;20115;-67
2022/07/24 02:37:58;;;;;;;38.28;26.13;;;19.70;99.90;;;;;;5072219;28;20078;-67
2022/07/24 02:40:24;;;;;;;34.95;25.80;;;19.80;99.90;;;;;;5072399;28;20486;-66
2022/07/24 02:42:50;;;;;;;36.03;26.92;;;19.90;99.90;;;;;;5072434;28;20116;-66
2022/07/24 02:45:15;;;;;;;31.38;25.05;;;20.00;99.90;;;;;;5072267;28;20059;-66
2022/07/24 02:47:56;;;;;;;36.22;26.48;;;19.70;99.90;;;;;;5087977;28;20074;-66
2022/07/24 02:50:23;;;;;;;33.28;24.45;;;19.40;99.90;;;;;;5072574;28;20115;-66
2022/07/24 02:52:49;;;;;;;35.83;24.50;;;19.40;99.90;;;;;;5072243;28;20445;-65
2022/07/24 02:55:15;;;;;;;34.95;23.55;;;19.30;99.90;;;;;;5088381;22;20049;-70
2022/07/24 02:57:41;;;;;;;35.92;23.88;;;19.20;99.90;;;;;;5072670;28;20055;-64
2022/07/24 03:00:10;;;;;;;30.75;23.55;;;19.10;99.90;;;;;;5073865;28;20035;-71
2022/07/24 03:02:36;;;;;;;33.75;23.15;;;18.90;99.90;;;;;;5076173;28;20109;-71
2022/07/24 03:05:03;;;;;;;33.22;21.75;;;19.00;99.90;;;;;;5075787;28;20070;-71
2022/07/24 03:07:29;;;;;;;32.92;23.85;;;19.10;99.90;;;;;;5057905;28;20032;-68
2022/07/24 03:09:54;;;;;;;35.17;24.13;;;19.10;99.90;;;;;;5075760;28;20035;-70
2022/07/24 03:12:20;;;;;;;30.42;21.83;;;19.00;99.90;;;;;;5075996;28;20036;-71
2022/07/24 03:14:46;;;;;;;33.83;23.63;;;19.10;99.90;;;;;;5076053;28;20032;-70
2022/07/24 03:17:12;;;;;;;30.55;22.75;;;19.10;99.90;;;;;;5075531;28;20427;-70
2022/07/24 03:19:37;;;;;;;37.05;24.40;;;19.10;99.90;;;;;;5076112;28;20055;-71
2022/07/24 03:22:03;;;;;;;32.33;25.27;;;19.10;99.90;;;;;;5075698;28;20391;-71
2022/07/24 03:24:29;;;;;;;32.28;23.88;;;19.00;99.90;;;;;;5075581;28;20078;-61
2022/07/24 03:26:55;;;;;;;36.70;26.02;;;19.20;99.90;;;;;;5075685;28;20021;-70
2022/07/24 03:29:21;;;;;;;36.42;27.55;;;19.00;99.90;;;;;;5075596;28;20129;-71
2022/07/24 03:31:46;;;;;;;36.65;28.10;;;19.00;99.90;;;;;;5075609;28;20020;-70
2022/07/24 03:34:13;;;;;;;36.53;27.75;;;18.90;99.90;;;;;;5075283;28;20029;-71
2022/07/24 03:36:38;;;;;;;37.88;27.08;;;18.90;99.90;;;;;;5075511;28;20135;-71
2022/07/24 03:39:05;;;;;;;44.15;28.40;;;19.00;99.90;;;;;;5075265;28;20099;-71
2022/07/24 03:41:31;;;;;;;44.05;28.58;;;19.00;99.90;;;;;;5075533;28;20020;-70
2022/07/24 03:43:57;;;;;;;41.05;28.45;;;19.00;99.90;;;;;;5075389;28;20032;-70
2022/07/24 03:46:23;;;;;;;39.50;29.30;;;18.70;99.90;;;;;;5075292;28;20025;-70
2022/07/24 03:48:49;;;;;;;35.45;28.05;;;18.70;99.90;;;;;;5057474;28;20041;-70
2022/07/24 03:51:15;;;;;;;39.63;27.10;;;18.70;99.90;;;;;;5075267;28;20042;-70
2022/07/24 03:53:41;;;;;;;34.63;27.58;;;18.70;99.90;;;;;;5074925;28;20025;-70
2022/07/24 03:56:09;;;;;;;35.88;27.77;;;18.30;99.90;;;;;;5076361;28;20063;-66
2022/07/24 03:58:35;;;;;;;42.08;28.08;;;18.40;99.90;;;;;;5075241;28;20025;-71
2022/07/24 04:01:01;;;;;;;40.13;27.67;;;18.30;99.90;;;;;;5074948;28;20029;-68
2022/07/24 04:03:27;;;;;;;37.80;27.17;;;18.40;99.90;;;;;;5056212;28;20448;-65
2022/07/24 04:05:53;;;;;;;44.65;27.60;;;18.40;99.90;;;;;;5074681;28;20042;-60
2022/07/24 04:08:19;;;;;;;36.20;25.90;;;18.40;99.90;;;;;;5075176;28;20028;-70
2022/07/24 04:10:45;;;;;;;36.75;27.17;;;18.40;99.90;;;;;;5068077;28;20067;-70
2022/07/24 04:13:11;;;;;;;35.33;26.52;;;18.40;99.90;;;;;;5074488;28;20056;-64
2022/07/24 04:15:37;;;;;;;33.08;25.60;;;18.40;99.90;;;;;;5074894;28;20445;-70
2022/07/24 04:18:03;;;;;;;33.35;25.27;;;18.10;99.90;;;;;;5074732;28;20063;-70
2022/07/24 04:20:29;;;;;;;31.27;25.35;;;18.10;99.90;;;;;;5074759;28;20016;-71
2022/07/24 04:22:55;;;;;;;38.13;26.25;;;18.10;99.90;;;;;;5074546;28;20491;-69
2022/07/24 04:25:21;;;;;;;35.38;26.52;;;18.00;99.90;;;;;;5074253;28;20031;-70
2022/07/24 04:27:47;;;;;;;34.65;26.63;;;18.00;99.90;;;;;;5074830;28;20099;-71
2022/07/24 04:30:13;;;;;;;39.63;27.30;;;17.80;99.90;;;;;;5074304;28;20044;-68
2022/07/24 04:32:39;;;;;;;34.03;26.45;;;17.70;99.90;;;;;;5056503;28;20563;-64
2022/07/24 04:35:06;;;;;;;38.17;27.35;;;17.80;99.90;;;;;;5074357;28;20115;-70
2022/07/24 04:37:31;;;;;;;38.58;26.23;;;17.90;99.90;;;;;;5074047;28;20112;-70
2022/07/24 04:39:57;;;;;;;34.70;27.05;;;17.70;99.90;;;;;;5074446;28;20111;-62
2022/07/24 04:42:23;;;;;;;33.13;24.17;;;18.00;99.90;;;;;;5074367;28;20451;-70
2022/07/24 04:44:49;;;;;;;35.40;25.02;;;17.90;99.90;;;;;;5074032;28;20020;-69
2022/07/24 04:47:14;;;;;;;31.17;23.10;;;18.10;99.90;;;;;;5074163;28;20025;-68
2022/07/24 04:49:40;;;;;;;35.20;22.60;;;17.80;99.90;;;;;;5073981;28;20049;-70
2022/07/24 04:52:06;;;;;;;29.63;23.35;;;17.90;99.90;;;;;;5073966;28;20384;-70
2022/07/24 04:54:32;;;;;;;32.00;22.42;;;18.00;99.90;;;;;;5073508;28;20082;-66
2022/07/24 04:56:58;;;;;;;31.40;23.63;;;18.30;99.90;;;;;;5074032;28;20503;-70
2022/07/24 04:59:24;;;;;;;27.98;20.98;;;18.30;99.90;;;;;;5073942;28;20021;-69
2022/07/24 05:01:50;;;;;;;28.80;21.38;;;18.10;99.90;;;;;;5073969;28;20029;-70
2022/07/24 05:04:15;;;;;;;31.67;21.33;;;18.30;99.90;;;;;;5073796;28;20017;-64
2022/07/24 05:06:41;;;;;;;28.17;20.83;;;18.50;99.90;;;;;;5055778;28;20028;-72
2022/07/24 05:09:07;;;;;;;31.83;20.95;;;18.50;99.90;;;;;;5073953;28;20036;-68
2022/07/24 05:11:33;;;;;;;29.70;20.10;;;18.30;99.90;;;;;;5073618;28;20013;-69
2022/07/24 05:13:58;;;;;;;27.17;20.75;;;18.30;99.90;;;;;;5073598;28;20035;-66
2022/07/24 05:16:24;;;;;;;29.15;19.08;;;18.30;99.90;;;;;;5055690;28;20369;-69
2022/07/24 05:18:50;;;;;;;26.33;19.15;;;18.40;99.90;;;;;;5073702;28;20349;-71
2022/07/24 05:21:17;;;;;;;28.05;20.70;;;18.60;99.90;;;;;;5072897;28;20053;-70
2022/07/24 05:23:45;;;;;;;27.27;19.02;;;18.60;99.90;;;;;;5055044;28;20094;-69
2022/07/24 05:26:11;;;;;;;30.60;19.75;;;18.60;99.90;;;;;;5073501;28;20028;-70
2022/07/24 05:28:37;;;;;;;24.30;17.85;;;18.30;99.90;;;;;;5073452;28;20033;-66
2022/07/24 05:31:02;;;;;;;25.52;18.20;;;18.20;99.90;;;;;;5073369;28;20346;-70
2022/07/24 05:33:28;;;;;;;29.27;18.20;;;18.00;99.90;;;;;;5073297;28;20040;-70
2022/07/24 05:35:54;;;;;;;25.42;17.90;;;18.20;99.90;;;;;;5075455;28;20036;-70
2022/07/24 05:38:20;;;;;;;25.63;17.73;;;18.20;99.90;;;;;;5073633;28;20099;-69
2022/07/24 05:40:45;;;;;;;28.90;18.15;;;18.50;99.90;;;;;;5073295;28;20032;-70
2022/07/24 05:43:11;;;;;;;24.13;16.92;;;18.70;99.90;;;;;;5072938;28;20020;-70
2022/07/24 05:45:37;;;;;;;24.95;18.00;;;18.80;99.90;;;;;;5073118;28;20032;-69
2022/07/24 05:48:03;;;;;;;24.02;16.58;;;19.00;99.90;;;;;;5072922;28;20069;-71
2022/07/24 05:50:28;;;;;;;21.67;15.57;;;18.90;99.90;;;;;;5070592;28;20039;-70
2022/07/24 05:52:54;;;;;;;20.80;15.65;;;18.90;99.90;;;;;;5073053;28;20012;-70
2022/07/24 05:55:20;;;;;;;23.25;15.52;;;18.70;99.90;;;;;;5072610;28;20044;-68
2022/07/24 05:57:46;;;;;;;24.77;17.08;;;18.80;99.90;;;;;;5072834;28;20481;-70
2022/07/24 06:00:14;;;;;;;17.88;15.15;;;19.10;99.90;;;;;;5072645;28;20102;-70
2022/07/24 06:02:39;;;;;;;17.80;14.30;;;19.30;99.90;;;;;;5072254;28;20033;-69
2022/07/24 06:05:05;;;;;;;23.02;13.88;;;19.50;99.90;;;;;;5072720;28;20372;-71
2022/07/24 06:07:31;;;;;;;19.58;13.57;;;19.40;99.90;;;;;;5070796;28;20111;-71
2022/07/24 06:09:57;;;;;;;20.73;14.13;;;19.40;99.90;;;;;;5070011;28;20438;-67
2022/07/24 06:12:23;;;;;;;19.60;12.98;;;19.80;99.90;;;;;;5066151;28;20017;-73
2022/07/24 06:14:48;;;;;;;20.33;13.30;;;19.60;99.90;;;;;;5079505;28;20079;-73
2022/07/24 06:17:14;;;;;;;24.83;13.18;;;19.90;99.90;;;;;;5065987;28;20028;-63
2022/07/24 06:19:40;;;;;;;14.60;12.18;;;20.10;99.90;;;;;;5074774;28;20473;-62
2022/07/24 06:22:06;;;;;;;15.93;12.55;;;20.30;99.90;;;;;;5072391;28;20024;-62
2022/07/24 06:24:31;;;;;;;14.98;10.93;;;20.40;99.90;;;;;;5079125;28;20373;-62
2022/07/24 06:26:57;;;;;;;14.82;11.50;;;20.50;99.90;;;;;;5058751;28;20411;-72
2022/07/24 06:29:23;;;;;;;13.60;9.40;;;20.60;99.90;;;;;;5065083;28;20032;-65
2022/07/24 06:31:49;;;;;;;13.23;8.43;;;20.50;99.90;;;;;;5064889;28;20128;-66
2022/07/24 06:34:14;;;;;;;9.32;7.38;;;20.60;99.90;;;;;;5070286;28;20032;-76
2022/07/24 06:36:40;;;;;;;13.13;6.97;;;20.30;99.90;;;;;;5072964;28;20055;-66
2022/07/24 06:39:06;;;;;;;9.40;6.95;;;20.10;99.90;;;;;;5075056;28;20027;-66
2022/07/24 06:41:31;;;;;;;13.27;8.18;;;20.20;99.90;;;;;;5075011;28;20037;-72
2022/07/24 06:43:59;;;;;;;10.20;6.75;;;20.30;99.90;;;;;;5075165;28;20032;-66
2022/07/24 06:46:25;;;;;;;11.93;7.38;;;20.40;99.90;;;;;;5073539;28;20025;-67
2022/07/24 06:48:51;;;;;;;11.40;6.43;;;20.50;99.90;;;;;;5057524;28;20025;-73
2022/07/24 06:51:17;;;;;;;7.53;5.97;;;20.30;99.90;;;;;;5080185;28;20039;-69
2022/07/24 06:53:45;;;;;;;10.45;6.55;;;20.20;99.90;;;;;;5077014;28;20024;-72
2022/07/24 06:56:10;;;;;;;10.57;7.28;;;20.50;99.90;;;;;;5076163;28;20055;-70
2022/07/24 06:58:36;;;;;;;11.38;7.70;;;20.70;99.90;;;;;;5087864;28;20020;-74
2022/07/24 07:01:02;;;;;;;10.70;7.47;;;20.90;99.90;;;;;;5069111;28;20028;-74
2022/07/24 07:03:28;;;;;;;10.98;6.30;;;21.00;99.90;;;;;;5071371;28;20131;-74
2022/07/24 07:05:54;;;;;;;9.18;5.45;;;21.30;99.90;;;;;;5068146;28;20029;-74
2022/07/24 07:08:19;;;;;;;10.73;5.75;;;21.50;99.90;;;;;;5065987;28;20480;-73
2022/07/24 07:10:45;;;;;;;7.15;5.20;;;21.40;99.90;;;;;;5075629;28;20024;-70
2022/07/24 07:13:11;;;;;;;7.22;4.65;;;21.50;99.90;;;;;;5074923;28;20056;-65
2022/07/24 07:15:37;;;;;;;7.68;4.72;;;21.60;99.90;;;;;;5066757;28;20036;-65
2022/07/24 07:18:03;;;;;;;9.05;5.60;;;21.80;99.90;;;;;;5074723;28;20103;-71
2022/07/24 07:20:29;;;;;;;6.53;4.25;;;21.90;99.90;;;;;;5076262;28;20025;-66
2022/07/24 07:22:54;;;;;;;7.53;4.55;;;22.10;99.90;;;;;;5071129;28;20379;-70
2022/07/24 07:25:20;;;;;;;5.63;3.78;;;22.30;99.90;;;;;;5078282;28;20544;-66
2022/07/24 07:27:46;;;;;;;10.25;3.90;;;21.80;99.90;;;;;;5069020;28;20025;-70
2022/07/24 07:30:12;;;;;;;5.80;4.22;;;21.80;99.90;;;;;;5068662;28;20024;-64
2022/07/24 07:32:39;;;;;;;7.88;4.25;;;22.00;99.90;;;;;;5073024;28;20017;-69
2022/07/24 07:35:05;;;;;;;4.15;3.70;;;22.50;99.90;;;;;;5075289;28;20024;-66
2022/07/24 07:37:31;;;;;;;7.30;3.15;;;22.40;99.90;;;;;;5063805;28;20056;-69
2022/07/24 07:39:58;;;;;;;6.95;3.72;;;22.40;99.90;;;;;;5056328;28;20469;-74
2022/07/24 07:42:24;;;;;;;5.78;3.47;;;22.40;99.90;;;;;;5075271;28;20029;-69
2022/07/24 07:44:49;;;;;;;7.55;3.45;;;22.30;99.90;;;;;;5076050;28;20502;-76
2022/07/24 07:47:16;;;;;;;4.68;3.30;;;22.50;99.90;;;;;;5080729;28;20395;-72
2022/07/24 07:49:42;;;;;;;5.00;2.75;;;22.90;99.90;;;;;;5083863;28;20032;-75
2022/07/24 07:52:08;;;;;;;9.30;3.17;;;22.80;99.90;;;;;;5057771;28;20078;-65
2022/07/24 07:54:33;;;;;;;4.40;2.85;;;22.80;99.90;;;;;;5072978;28;20063;-74
2022/07/24 07:56:59;;;;;;;4.45;2.97;;;22.60;99.90;;;;;;5079112;28;20076;-78
2022/07/24 07:59:25;;;;;;;6.70;3.42;;;22.90;99.90;;;;;;5082080;28;20028;-79
2022/07/24 08:01:51;;;;;;;5.35;2.83;;;23.10;99.90;;;;;;5081018;28;20104;-78
2022/07/24 08:04:17;;;;;;;5.05;2.63;;;23.40;99.90;;;;;;5077171;28;20028;-78
2022/07/24 08:06:42;;;;;;;4.10;2.70;;;23.50;99.90;;;;;;5076890;28;20028;-77
2022/07/24 08:09:08;;;;;;;6.30;3.47;;;23.60;99.90;;;;;;5054798;28;20032;-76
2022/07/24 08:11:34;;;;;;;6.75;3.42;;;23.50;99.90;;;;;;5078779;28;20028;-67
2022/07/24 08:14:00;;;;;;;5.10;2.90;;;23.60;99.90;;;;;;5081514;28;20088;-78
2022/07/24 08:16:25;;;;;;;8.38;2.90;;;23.60;99.90;;;;;;5083223;28;20396;-71
2022/07/24 08:18:54;;;;;;;4.68;3.08;;;23.60;99.90;;;;;;5075631;28;20024;-77
2022/07/24 08:21:21;;;;;;;4.15;2.70;;;23.60;99.90;;;;;;5079829;28;20035;-73
2022/07/24 08:23:48;;;;;;;4.72;2.75;;;23.60;99.90;;;;;;5074914;28;20031;-66
2022/07/24 08:26:15;;;;;;;5.07;2.63;;;24.00;99.90;;;;;;5073826;28;20518;-75
2022/07/24 08:28:41;;;;;;;6.85;2.90;;;23.90;99.90;;;;;;5054942;28;20078;-72
2022/07/24 08:31:07;;;;;;;6.90;2.80;;;24.00;99.90;;;;;;5074419;28;20032;-75
2022/07/24 08:33:33;;;;;;;4.18;2.40;;;23.80;99.90;;;;;;5073234;28;20465;-73
2022/07/24 08:35:58;;;;;;;3.97;2.33;;;23.50;99.90;;;;;;5073789;28;20035;-71
2022/07/24 08:38:24;;;;;;;8.38;3.25;;;23.80;99.90;;;;;;5074146;28;20465;-74
2022/07/24 08:40:51;;;;;;;4.78;2.58;;;24.00;99.90;;;;;;5073443;28;20081;-63
2022/07/24 08:43:17;;;;;;;5.15;2.80;;;24.40;99.90;;;;;;5083533;28;20028;-75
2022/07/24 08:45:46;;;;;;;6.10;2.58;;;24.90;99.90;;;;;;5055642;28;20024;-72
2022/07/24 08:48:12;;;;;;;3.80;2.10;;;24.60;99.90;;;;;;5073785;28;20032;-70
2022/07/24 08:50:42;;;;;;;6.03;2.70;;;24.50;99.90;;;;;;5055700;28;20047;-65
2022/07/24 08:53:09;;;;;;;5.63;2.45;;;24.60;99.90;;;;;;5070433;28;20487;-64
2022/07/24 08:55:35;;;;;;;5.32;2.53;;;24.90;99.80;;;;;;5073066;28;20557;-66
2022/07/24 08:58:01;;;;;;;3.95;2.40;;;24.80;99.30;;;;;;5072532;28;20468;-74
2022/07/24 09:00:28;;;;;;;5.28;2.35;;;24.90;99.30;;;;;;5072729;28;20017;-71
2022/07/24 09:02:54;;;;;;;4.40;2.45;;;25.40;99.10;;;;;;5073310;28;20020;-76
2022/07/24 09:05:20;;;;;;;4.82;2.67;;;25.00;98.60;;;;;;5072480;28;20062;-74
2022/07/24 09:07:47;;;;;;;2.85;2.10;;;25.40;98.40;;;;;;5072990;28;20111;-70
2022/07/24 09:10:17;;;;;;;3.08;2.33;;;25.20;97.80;;;;;;5073198;28;20029;-64
2022/07/24 09:12:46;;;;;;;3.92;2.47;;;25.20;98.20;;;;;;5063561;28;20029;-75
2022/07/24 09:15:22;;;;;;;6.07;2.47;;;25.60;97.50;;;;;;5072102;28;20059;-68
2022/07/24 09:17:53;;;;;;;4.90;2.10;;;25.60;97.60;;;;;;5058705;28;20063;-63
2022/07/24 09:20:21;;;;;;;2.95;1.98;;;25.70;97.50;;;;;;5070399;28;20056;-74
2022/07/24 09:22:47;;;;;;;7.20;1.90;;;25.10;98.20;;;;;;5036489;28;20094;-68
2022/07/24 09:25:14;;;;;;;6.03;2.60;;;25.30;98.30;;;;;;5069543;28;20027;-71
2022/07/24 09:27:51;;;;;;;5.07;2.13;;;25.40;98.10;;;;;;5068812;28;20031;-69
2022/07/24 09:30:28;;;;;;;3.70;2.30;;;25.80;98.00;;;;;;5067427;28;20036;-71
2022/07/24 09:32:59;;;;;;;4.32;2.33;;;26.00;97.40;;;;;;5071854;28;20033;-66
2022/07/24 09:35:37;;;;;;;3.85;2.30;;;25.90;97.80;;;;;;5071152;28;20033;-69
2022/07/24 09:38:05;;;;;;;3.90;2.10;;;26.40;96.90;;;;;;5065088;28;20413;-69
2022/07/24 09:40:36;;;;;;;4.43;2.45;;;26.30;97.30;;;;;;5069730;28;20837;-69
2022/07/24 09:43:15;;;;;;;3.60;2.22;;;26.00;96.80;;;;;;5066068;28;20032;-69
2022/07/24 09:46:00;;;;;;;3.25;2.25;;;25.70;97.80;;;;;;5071852;28;20020;-64
2022/07/24 09:48:32;;;;;;;5.30;1.98;;;26.20;97.50;;;;;;5070717;28;20031;-63
2022/07/24 09:51:00;;;;;;;4.22;2.22;;;26.40;96.80;;;;;;5073535;28;20040;-69
2022/07/24 09:53:29;;;;;;;5.90;2.75;;;26.50;96.80;;;;;;5065546;28;20028;-65
2022/07/24 09:56:09;;;;;;;6.18;3.38;;;26.60;96.60;;;;;;5052178;28;20036;-68
2022/07/24 09:58:45;;;;;;;4.47;2.35;;;26.90;96.70;;;;;;5071446;28;20107;-68
2022/07/24 10:01:12;;;;;;;2.67;2.15;;;26.80;96.40;;;;;;5073369;28;20039;-64
2022/07/24 10:03:40;;;;;;;4.28;2.00;;;26.60;96.60;;;;;;5070676;28;20016;-61
2022/07/24 10:06:11;;;;;;;7.03;2.42;;;26.70;97.00;;;;;;5072161;28;20028;-66
2022/07/24 10:08:39;;;;;;;5.95;2.60;;;26.80;96.50;;;;;;5070766;28;20025;-63
2022/07/24 10:11:05;;;;;;;4.75;2.25;;;27.10;96.10;;;;;;5071452;28;20386;-63
2022/07/24 10:13:31;;;;;;;5.95;2.47;;;27.50;95.80;;;;;;5071588;28;20026;-62
2022/07/24 10:16:12;;;;;;;5.82;2.30;;;27.40;95.60;;;;;;5072159;28;20083;-63
2022/07/24 10:19:12;;;;;;;4.63;2.22;;;27.40;95.40;;;;;;5072460;28;20020;-63
2022/07/24 10:21:40;;;;;;;4.18;2.20;;;27.50;95.60;;;;;;5054023;28;20109;-62
2022/07/24 10:24:10;;;;;;;5.72;2.85;;;27.60;95.50;;;;;;5065938;28;20052;-61
2022/07/24 10:26:40;;;;;;;3.83;2.30;;;27.70;95.40;;;;;;5071268;28;20108;-62
2022/07/24 10:29:10;;;;;;;6.85;2.38;;;27.80;95.50;;;;;;5072654;28;20131;-63
2022/07/24 10:31:40;;;;;;;6.55;2.92;;;28.00;94.80;;;;;;5076519;28;20025;-63
2022/07/24 10:34:18;;;;;;;6.33;2.47;;;28.10;94.60;;;;;;5081340;28;20028;-62
2022/07/24 10:37:04;;;;;;;4.47;2.20;;;27.60;94.30;;;;;;5073523;28;20036;-61
2022/07/24 10:39:54;;;;;;;4.85;1.95;;;27.60;94.80;;;;;;5066157;28;20024;-67
2022/07/24 10:42:20;;;;;;;3.58;2.28;;;27.60;94.70;;;;;;5069077;28;20025;-62
2022/07/24 10:45:18;;;;;;;3.80;2.15;;;27.80;94.60;;;;;;5069917;28;20108;-61
2022/07/24 10:47:45;;;;;;;5.65;2.10;;;27.80;94.30;;;;;;5081976;28;20369;-61
2022/07/24 10:50:14;;;;;;;7.50;2.35;;;27.60;94.90;;;;;;5075522;28;20041;-64
2022/07/24 10:52:41;;;;;;;4.53;2.22;;;28.00;95.00;;;;;;5066333;28;20028;-63
2022/07/24 10:55:39;;;;;;;4.70;2.33;;;27.80;94.60;;;;;;5065054;28;20028;-61
2022/07/24 10:58:10;;;;;;;6.30;2.38;;;28.20;94.40;;;;;;5036673;28;20123;-62
2022/07/24 11:00:40;;;;;;;4.22;2.08;;;28.40;94.40;;;;;;5061755;28;20044;-64
2022/07/24 11:03:18;;;;;;;4.93;1.90;;;28.40;94.10;;;;;;5055245;28;20492;-62
2022/07/24 11:06:07;;;;;;;5.55;2.30;;;28.60;93.50;;;;;;5075641;28;20036;-62
2022/07/24 11:08:41;;;;;;;7.18;2.00;;;28.20;93.80;;;;;;5073502;28;20086;-65
2022/07/24 11:11:08;;;;;;;3.17;2.10;;;28.40;93.80;;;;;;5070822;28;20043;-64
2022/07/24 11:13:34;;;;;;;5.00;1.90;;;28.20;93.90;;;;;;5079787;28;20028;-63
2022/07/24 11:16:14;;;;;;;3.83;1.90;;;27.90;93.90;;;;;;5078475;28;20040;-67
2022/07/24 11:19:00;;;;;;;5.32;1.98;;;28.20;93.90;;;;;;5070895;28;20121;-64
2022/07/24 11:21:42;;;;;;;4.80;2.10;;;28.40;93.80;;;;;;5068178;28;20036;-64
2022/07/24 11:24:14;;;;;;;5.13;1.90;;;28.50;93.50;;;;;;5073179;28;20024;-63
2022/07/24 11:27:03;;;;;;;3.42;2.05;;;28.70;93.80;;;;;;5076114;28;20041;-63
2022/07/24 11:29:38;;;;;;;7.28;1.60;;;29.20;92.90;;;;;;5081812;28;20024;-63
2022/07/24 11:32:10;;;;;;;4.18;1.95;;;28.80;93.10;;;;;;5066781;28;20024;-63
2022/07/24 11:34:37;;;;;;;6.15;1.83;;;28.70;93.30;;;;;;5080829;28;20028;-64
2022/07/24 11:37:08;;;;;;;5.18;2.25;;;28.50;93.10;;;;;;5076882;28;20520;-61
2022/07/24 11:39:40;;;;;;;3.28;1.85;;;28.50;93.20;;;;;;5088828;28;20078;-63
2022/07/24 11:42:07;;;;;;;2.45;1.98;;;29.00;93.20;;;;;;5089750;28;20035;-67
2022/07/24 11:44:42;;;;;;;4.18;1.80;;;28.90;93.90;;;;;;5066006;28;20107;-63
2022/07/24 11:47:18;;;;;;;2.72;1.73;;;29.00;93.20;;;;;;5079163;28;20434;-68
2022/07/24 11:49:54;;;;;;;3.47;1.60;;;29.00;92.80;;;;;;5078208;28;20373;-68
2022/07/24 11:52:27;;;;;;;3.55;1.60;;;28.90;92.70;;;;;;5090577;28;20032;-61
2022/07/24 11:54:55;;;;;;;5.85;1.85;;;29.00;92.80;;;;;;5069990;28;20032;-62
2022/07/24 11:57:28;;;;;;;4.50;1.75;;;29.20;92.70;;;;;;5064021;28;20033;-62
2022/07/24 11:59:54;;;;;;;4.93;1.85;;;29.60;92.30;;;;;;5082758;28;20052;-64
2022/07/24 12:02:21;;;;;;;3.80;2.28;;;30.10;92.30;;;;;;5085477;28;20028;-64
2022/07/24 12:04:49;;;;;;;3.20;2.38;;;29.90;91.90;;;;;;5082210;28;20081;-68
2022/07/24 12:07:21;;;;;;;4.65;2.20;;;29.50;91.90;;;;;;5075577;28;20043;-68
2022/07/24 12:09:57;;;;;;;4.05;1.80;;;29.90;92.20;;;;;;5087186;28;20056;-67
2022/07/24 12:12:32;;;;;;;3.10;1.83;;;29.60;91.90;;;;;;5087609;28;20040;-67
2022/07/24 12:15:02;;;;;;;7.60;1.95;;;29.60;92.10;;;;;;5083931;28;20115;-69
2022/07/24 12:17:30;;;;;;;3.70;1.85;;;29.70;92.00;;;;;;5059308;28;20077;-67
2022/07/24 12:19:57;;;;;;;4.82;2.67;;;30.40;92.10;;;;;;5074589;28;20017;-67
2022/07/24 12:22:25;;;;;;;4.78;1.70;;;30.30;91.40;;;;;;5089398;28;21079;-69
2022/07/24 12:24:52;;;;;;;4.45;1.63;;;30.70;91.40;;;;;;5087648;28;20020;-68
2022/07/24 12:27:40;;;;;;;4.32;2.00;;;30.50;91.50;;;;;;5079317;28;20047;-62
2022/07/24 12:30:27;;;;;;;4.05;1.65;;;30.40;91.70;;;;;;5076077;28;20025;-66
2022/07/24 12:33:00;;;;;;;7.70;2.20;;;30.50;91.30;;;;;;5071194;28;20025;-64
2022/07/24 12:35:29;;;;;;;2.42;1.85;;;30.80;91.60;;;;;;5072050;28;20040;-69
2022/07/24 12:37:55;;;;;;;2.53;1.92;;;31.20;90.70;;;;;;5074123;28;20103;-68
2022/07/24 12:40:24;;;;;;;2.90;1.70;;;31.60;90.80;;;;;;5073705;28;20483;-63